Time;durP1;ratioP1;P1;durP2;ratioP2;P2;SDS_P1;SDS_P2;PMS_P1;PMS_P2;Temp;Humidity;BMP_temperature;BMP_pressure;BME280_temperature;BME280_humidity;BME280_pressure;Samples;Min_cycle;Max_cycle;Signal;HPM_P1;HPM_P2
2021/11/26 00:01:39;;;;;;;59.88;22.73;;;6.80;99.90;;;4.64;100.00;99691.53;5047665;28;20076;-85
2021/11/26 00:04:08;;;;;;;52.72;22.92;;;6.70;99.90;;;4.64;100.00;99694.22;5048945;28;20040;-85
2021/11/26 00:06:36;;;;;;;65.90;23.90;;;6.80;99.90;;;4.58;100.00;99680.59;5048931;28;20033;-84
2021/11/26 00:09:04;;;;;;;64.25;22.63;;;6.80;99.90;;;4.53;100.00;99675.69;5043362;28;20103;-85
2021/11/26 00:11:31;;;;;;;59.53;22.55;;;6.70;99.90;;;4.52;100.00;99679.41;5044369;28;20585;-85
2021/11/26 00:14:05;;;;;;;63.47;23.17;;;6.70;99.90;;;4.47;100.00;99671.84;5029331;28;20076;-85
2021/11/26 00:16:36;;;;;;;53.83;22.10;;;6.70;99.90;;;4.54;100.00;99674.69;5047028;28;20053;-85
2021/11/26 00:19:06;;;;;;;63.53;23.58;;;6.70;99.90;;;4.55;100.00;99673.69;5048013;28;20048;-84
2021/11/26 00:21:38;;;;;;;60.40;23.85;;;6.70;99.90;;;4.56;100.00;99659.19;5048322;28;20045;-85
2021/11/26 00:24:08;;;;;;;58.90;23.17;;;6.70;99.90;;;4.56;100.00;99661.91;5048728;28;20079;-85
2021/11/26 00:26:36;;;;;;;57.97;23.90;;;6.70;99.90;;;4.53;100.00;99654.13;5043841;28;20045;-84
2021/11/26 00:29:04;;;;;;;67.47;25.13;;;6.70;99.90;;;4.51;100.00;99656.16;5039823;28;20111;-84
2021/11/26 00:31:32;;;;;;;59.63;23.33;;;6.60;99.90;;;4.45;100.00;99643.34;5043836;28;20053;-85
2021/11/26 00:33:59;;;;;;;60.80;23.50;;;6.70;99.90;;;4.47;100.00;99650.28;5038049;28;20567;-84
2021/11/26 00:36:27;;;;;;;56.70;22.40;;;6.60;99.90;;;4.46;100.00;99635.09;5048156;28;20091;-85
2021/11/26 00:38:56;;;;;;;63.80;23.73;;;6.60;99.90;;;4.43;100.00;99637.28;5048144;28;20102;-84
2021/11/26 00:41:23;;;;;;;67.53;24.48;;;6.60;99.90;;;4.44;100.00;99623.66;5048272;28;20105;-85
2021/11/26 00:43:51;;;;;;;62.25;24.75;;;6.70;99.90;;;4.43;100.00;99623.81;5048383;28;20052;-85
2021/11/26 00:46:20;;;;;;;66.00;25.27;;;6.60;99.90;;;4.42;100.00;99619.47;5048246;28;20067;-85
2021/11/26 00:48:48;;;;;;;57.72;23.75;;;6.60;99.90;;;4.42;100.00;99622.16;5043853;28;20124;-85
2021/11/26 00:51:16;;;;;;;63.72;23.55;;;6.60;99.90;;;4.37;100.00;99619.09;5048276;28;20045;-85
2021/11/26 00:53:43;;;;;;;73.10;24.42;;;6.60;99.90;;;4.36;100.00;99614.72;5048288;28;20584;-84
2021/11/26 00:56:12;;;;;;;63.65;23.80;;;6.60;99.90;;;4.41;100.00;99598.91;5048126;28;20124;-84
2021/11/26 00:58:39;;;;;;;70.68;27.08;;;6.60;99.90;;;4.45;100.00;99586.78;5047735;28;20037;-85
2021/11/26 01:01:07;;;;;;;65.50;24.52;;;6.60;99.90;;;4.39;100.00;99590.16;5047748;28;20120;-85
2021/11/26 01:03:34;;;;;;;64.55;24.73;;;6.60;99.90;;;4.28;100.00;99584.09;5042450;28;20074;-85
2021/11/26 01:06:01;;;;;;;77.60;25.23;;;6.60;99.90;;;4.26;100.00;99582.56;5047878;28;20087;-85
2021/11/26 01:08:29;;;;;;;73.15;26.55;;;6.60;99.90;;;4.19;100.00;99592.31;5047475;28;20029;-85
2021/11/26 01:10:56;;;;;;;65.07;25.48;;;6.50;99.90;;;4.19;100.00;99586.91;5043509;28;20045;-84
2021/11/26 01:13:25;;;;;;;74.38;26.58;;;6.50;99.90;;;4.22;100.00;99570.44;5048414;28;20047;-85
2021/11/26 01:15:53;;;;;;;77.88;26.52;;;6.50;99.90;;;4.30;100.00;99567.75;5046366;28;20084;-85
2021/11/26 01:18:20;;;;;;;64.90;23.42;;;6.50;99.90;;;4.39;100.00;99555.97;5047554;28;20041;-85
2021/11/26 01:20:48;;;;;;;58.85;23.80;;;6.60;99.90;;;4.42;100.00;99554.81;5042318;28;20140;-85
2021/11/26 01:23:16;;;;;;;70.40;26.35;;;6.60;99.90;;;4.39;100.00;99555.13;5048203;28;20441;-85
2021/11/26 01:25:44;;;;;;;75.82;29.98;;;6.50;99.90;;;4.36;100.00;99550.06;5047335;28;20043;-85
2021/11/26 01:28:12;;;;;;;89.35;38.03;;;6.60;99.90;;;4.33;100.00;99545.88;5059249;28;20824;-85
2021/11/26 01:30:44;;;;;;;98.97;40.53;;;6.60;99.90;;;4.27;100.00;99541.16;5047714;28;20049;-85
2021/11/26 01:33:15;;;;;;;77.68;31.00;;;6.70;99.90;;;4.23;100.00;99540.66;5046627;28;20053;-85
2021/11/26 01:35:43;;;;;;;69.78;29.25;;;6.50;99.90;;;4.27;100.00;99542.00;5047916;28;20049;-84
2021/11/26 01:38:11;;;;;;;76.25;27.83;;;6.60;99.90;;;4.34;100.00;99542.19;5047330;28;20091;-85
2021/11/26 01:40:42;;;;;;;68.63;24.88;;;6.50;99.90;;;4.36;100.00;99544.69;5048166;28;20075;-85
2021/11/26 01:43:14;;;;;;;67.53;25.17;;;6.50;99.90;;;4.35;100.00;99535.78;5047891;28;20570;-85
2021/11/26 01:45:46;;;;;;;62.35;22.63;;;6.50;99.90;;;4.36;100.00;99533.91;5046243;28;20049;-85
2021/11/26 01:48:14;;;;;;;65.22;22.55;;;6.50;99.90;;;4.39;100.00;99528.19;5046107;28;20536;-85
2021/11/26 01:50:42;;;;;;;58.22;21.15;;;6.50;99.90;;;4.43;100.00;99522.28;5044592;28;20061;-85
2021/11/26 01:53:09;;;;;;;58.95;21.02;;;6.60;99.90;;;4.44;100.00;99498.91;5047678;28;20037;-86
2021/11/26 01:55:37;;;;;;;55.50;20.92;;;6.50;99.90;;;4.46;100.00;99497.72;5047322;28;20217;-85
2021/11/26 01:58:04;;;;;;;50.85;20.83;;;6.60;99.90;;;4.47;100.00;99488.63;5047345;28;20116;-85
2021/11/26 02:00:35;;;;;;;59.90;21.70;;;6.60;99.90;;;4.49;100.00;99491.13;5047627;28;20048;-85
2021/11/26 02:03:04;;;;;;;59.28;21.20;;;6.60;99.90;;;4.48;100.00;99484.06;5048720;28;20134;-85
2021/11/26 02:05:31;;;;;;;60.53;22.92;;;6.60;99.90;;;4.49;100.00;99486.59;5049443;28;20036;-85
2021/11/26 02:07:59;;;;;;;58.95;21.95;;;6.60;99.90;;;4.51;100.00;99483.72;5050502;28;20697;-85
2021/11/26 02:10:26;;;;;;;57.92;23.38;;;6.60;99.90;;;4.50;100.00;99469.41;5051427;28;20068;-85
2021/11/26 02:12:54;;;;;;;61.92;23.67;;;6.60;99.90;;;4.56;100.00;99470.59;5051036;28;20076;-85
2021/11/26 02:15:25;;;;;;;63.25;22.75;;;6.60;99.90;;;4.50;100.00;99466.72;5050841;28;20571;-85
2021/11/26 02:17:55;;;;;;;63.17;23.17;;;6.60;99.90;;;4.52;100.00;99463.84;5048907;28;20045;-85
2021/11/26 02:20:27;;;;;;;69.15;24.67;;;6.60;99.90;;;4.50;100.00;99465.88;5029806;28;20080;-85
2021/11/26 02:22:57;;;;;;;61.05;24.23;;;6.60;99.90;;;4.54;100.00;99456.44;5046650;28;20124;-85
2021/11/26 02:25:26;;;;;;;73.65;24.88;;;6.70;99.90;;;4.54;100.00;99442.97;5050779;28;20116;-85
2021/11/26 02:27:57;;;;;;;68.40;24.05;;;6.60;99.90;;;4.54;100.00;99442.97;5050162;28;20053;-85
2021/11/26 02:30:24;;;;;;;65.67;22.77;;;6.70;99.90;;;4.54;100.00;99434.06;5049273;28;20079;-85
2021/11/26 02:32:55;;;;;;;59.15;23.88;;;6.70;99.90;;;4.55;100.00;99427.63;5050516;28;20068;-85
2021/11/26 02:35:25;;;;;;;66.13;25.55;;;6.70;99.90;;;4.50;100.00;99431.69;5029170;28;20084;-85
2021/11/26 02:37:52;;;;;;;66.22;25.25;;;6.70;99.90;;;4.56;100.00;99426.63;5034631;28;20140;-85
2021/11/26 02:40:24;;;;;;;68.72;25.60;;;6.70;99.90;;;4.55;100.00;99415.03;5035935;28;20547;-85
2021/11/26 02:42:54;;;;;;;67.03;26.10;;;6.70;99.90;;;4.55;100.00;99406.09;5038622;28;20049;-85
2021/11/26 02:45:24;;;;;;;67.65;26.42;;;6.70;99.90;;;4.52;100.00;99409.97;5030717;28;20053;-84
2021/11/26 02:47:53;;;;;;;66.85;26.25;;;6.70;99.90;;;4.48;100.00;99408.66;5035777;28;20037;-85
2021/11/26 02:50:21;;;;;;;74.07;26.70;;;6.70;99.90;;;4.40;100.00;99395.19;5029406;28;20494;-84
2021/11/26 02:52:50;;;;;;;70.75;26.10;;;6.70;99.90;;;4.38;100.00;99397.19;5030585;28;20072;-85
2021/11/26 02:55:22;;;;;;;70.88;26.10;;;6.70;99.90;;;4.34;100.00;99387.78;5029890;28;20563;-85
2021/11/26 02:57:51;;;;;;;64.70;26.05;;;6.60;99.90;;;4.31;100.00;99386.28;5047784;28;20545;-84
2021/11/26 03:00:22;;;;;;;63.22;26.00;;;6.60;99.90;;;4.35;100.00;99382.25;5049120;28;20055;-85
2021/11/26 03:02:49;;;;;;;70.85;28.25;;;6.60;99.90;;;4.37;100.00;99384.75;5050442;28;20075;-85
2021/11/26 03:05:17;;;;;;;70.05;26.67;;;6.60;99.90;;;4.36;100.00;99380.38;5050012;28;20091;-85
2021/11/26 03:07:45;;;;;;;67.88;26.73;;;6.60;99.90;;;4.39;100.00;99372.78;5047385;28;20125;-85
2021/11/26 03:10:17;;;;;;;66.93;26.65;;;6.60;99.90;;;4.42;100.00;99360.84;5050267;28;20056;-85
2021/11/26 03:12:46;;;;;;;60.65;26.30;;;6.60;99.90;;;4.40;100.00;99360.16;5047506;28;20045;-85
2021/11/26 03:15:14;;;;;;;77.50;27.92;;;6.60;99.90;;;4.41;100.00;99367.25;5045003;28;20052;-85
2021/11/26 03:17:42;;;;;;;61.42;27.33;;;6.60;99.90;;;4.37;100.00;99360.53;5031958;28;20081;-85
2021/11/26 03:20:11;;;;;;;72.60;27.65;;;6.60;99.90;;;4.34;100.00;99350.09;5048341;28;20102;-85
2021/11/26 03:22:38;;;;;;;73.70;28.25;;;6.60;99.90;;;4.35;100.00;99349.91;5050115;28;20348;-85
2021/11/26 03:25:07;;;;;;;67.38;28.08;;;6.60;99.90;;;4.37;100.00;99347.06;5049827;28;20508;-85
2021/11/26 03:27:36;;;;;;;70.55;28.45;;;6.60;99.90;;;4.39;100.00;99336.94;5043389;28;20041;-85
2021/11/26 03:30:07;;;;;;;70.68;26.45;;;6.60;99.90;;;4.42;100.00;99339.31;5049101;28;20079;-85
2021/11/26 03:32:34;;;;;;;65.45;26.67;;;6.60;99.90;;;4.43;100.00;99332.88;5047875;28;20144;-85
2021/11/26 03:35:01;;;;;;;65.15;26.15;;;6.60;99.90;;;4.47;100.00;99336.91;5044814;28;20076;-85
2021/11/26 03:37:29;;;;;;;64.70;27.55;;;6.60;99.90;;;4.48;100.00;99325.13;5028884;28;20126;-85
2021/11/26 03:39:56;;;;;;;64.22;26.15;;;6.60;99.90;;;4.44;100.00;99321.94;5048588;28;20129;-85
2021/11/26 03:42:23;;;;;;;61.90;26.90;;;6.60;99.90;;;4.47;100.00;99313.53;5048218;28;20110;-85
2021/11/26 03:44:52;;;;;;;60.58;25.80;;;6.60;99.90;;;4.45;100.00;99320.09;5047759;28;20037;-85
2021/11/26 03:47:19;;;;;;;61.33;26.02;;;6.60;99.90;;;4.44;100.00;99304.94;5049251;28;20517;-86
2021/11/26 03:49:47;;;;;;;59.28;26.05;;;6.60;99.90;;;4.49;100.00;99303.41;5048159;28;20052;-85
2021/11/26 03:52:14;;;;;;;66.20;27.23;;;6.60;99.90;;;4.49;100.00;99298.03;5049423;28;20129;-85
2021/11/26 03:54:42;;;;;;;66.07;26.85;;;6.60;99.90;;;4.50;100.00;99306.94;5049309;28;20048;-85
2021/11/26 03:57:10;;;;;;;58.22;27.23;;;6.60;99.90;;;4.47;100.00;99294.66;5047987;28;20052;-85
2021/11/26 03:59:38;;;;;;;67.10;29.08;;;6.60;99.90;;;4.44;100.00;99288.78;5048183;28;20040;-85
2021/11/26 04:02:08;;;;;;;65.47;27.67;;;6.60;99.90;;;4.44;100.00;99288.78;5047387;28;20090;-85
2021/11/26 04:04:35;;;;;;;66.43;27.80;;;6.60;99.90;;;4.44;100.00;99283.41;5048857;28;20041;-85
2021/11/26 04:07:02;;;;;;;65.13;27.45;;;6.60;99.90;;;4.41;100.00;99273.78;5047839;28;20075;-85
2021/11/26 04:09:32;;;;;;;62.80;27.73;;;6.60;99.90;;;4.41;100.00;99267.56;5048322;28;20114;-85
2021/11/26 04:11:59;;;;;;;65.18;28.20;;;6.60;99.90;;;4.40;100.00;99269.44;5049153;28;20558;-86
2021/11/26 04:14:27;;;;;;;61.58;27.10;;;6.60;99.90;;;4.42;100.00;99262.00;5048579;28;20140;-86
2021/11/26 04:16:54;;;;;;;67.20;27.95;;;6.60;99.90;;;4.46;100.00;99262.50;5047695;28;20072;-85
2021/11/26 04:19:23;;;;;;;62.92;28.02;;;6.60;99.90;;;4.44;100.00;99259.16;5046775;28;20037;-85
2021/11/26 04:21:50;;;;;;;53.70;26.88;;;6.60;99.90;;;4.44;100.00;99256.47;5048742;28;20071;-86
2021/11/26 04:24:17;;;;;;;64.93;28.52;;;6.60;99.90;;;4.51;100.00;99249.31;5048321;28;20052;-85
2021/11/26 04:26:45;;;;;;;58.85;29.02;;;6.60;99.90;;;4.53;100.00;99244.59;5047527;28;20110;-85
2021/11/26 04:29:12;;;;;;;54.97;27.92;;;6.60;99.90;;;4.54;100.00;99234.69;5046518;28;20136;-85
2021/11/26 04:31:41;;;;;;;61.92;29.25;;;6.60;99.90;;;4.53;100.00;99228.44;5047259;28;20118;-85
2021/11/26 04:34:09;;;;;;;60.58;28.63;;;6.60;99.90;;;4.50;100.00;99220.72;5048176;28;20041;-85
2021/11/26 04:36:38;;;;;;;60.60;29.67;;;6.60;99.90;;;4.48;100.00;99220.06;5045816;28;20043;-85
2021/11/26 04:39:06;;;;;;;63.63;28.73;;;6.60;99.90;;;4.47;100.00;99213.84;5042931;28;20056;-86
2021/11/26 04:41:33;;;;;;;53.38;27.95;;;6.60;99.90;;;4.43;100.00;99215.19;5027346;28;20057;-86
2021/11/26 04:44:01;;;;;;;56.15;28.17;;;6.60;99.90;;;4.43;100.00;99206.28;5027230;28;20092;-85
2021/11/26 04:46:28;;;;;;;56.95;28.20;;;6.60;99.90;;;4.44;100.00;99197.19;5026996;28;20049;-85
2021/11/26 04:48:56;;;;;;;49.97;26.92;;;6.60;99.90;;;4.39;100.00;99189.63;5040094;28;20064;-85
2021/11/26 04:51:23;;;;;;;52.65;27.08;;;6.60;99.90;;;4.38;100.00;99184.41;5047103;28;20049;-86
2021/11/26 04:53:52;;;;;;;51.47;26.23;;;6.60;99.90;;;4.39;100.00;99178.03;5046546;28;20052;-85
2021/11/26 04:56:19;;;;;;;52.30;26.45;;;6.60;99.90;;;4.38;100.00;99170.94;5048654;28;20137;-85
2021/11/26 04:58:46;;;;;;;48.25;26.40;;;6.50;99.90;;;4.40;100.00;99168.91;5047814;28;20033;-85
2021/11/26 05:01:13;;;;;;;53.95;26.92;;;6.50;99.90;;;4.41;100.00;99170.59;5047023;28;20087;-85
2021/11/26 05:03:41;;;;;;;47.92;26.55;;;6.50;99.90;;;4.37;100.00;99170.13;5048790;28;20124;-85
2021/11/26 05:06:08;;;;;;;56.72;28.33;;;6.50;99.90;;;4.35;100.00;99161.38;5046892;28;20045;-85
2021/11/26 05:08:36;;;;;;;52.80;26.40;;;6.60;99.90;;;4.36;100.00;99162.22;5046306;28;20116;-86
2021/11/26 05:11:05;;;;;;;49.58;26.08;;;6.50;99.90;;;4.36;100.00;99156.81;5038687;28;20552;-87
2021/11/26 05:13:33;;;;;;;47.97;25.70;;;6.50;99.90;;;4.39;100.00;99161.88;5043722;28;20506;-89
2021/11/26 05:16:01;;;;;;;51.22;25.55;;;6.50;99.90;;;4.35;100.00;99149.78;5026697;28;20053;-86
2021/11/26 05:18:28;;;;;;;48.28;24.70;;;6.50;99.90;;;4.39;100.00;99145.72;5037035;28;20564;-92
2021/11/26 05:20:56;;;;;;;49.88;25.35;;;6.50;99.90;;;4.33;100.00;99151.81;5043635;28;20053;-89
2021/11/26 05:23:26;;;;;;;53.63;24.58;;;6.50;99.90;;;4.29;100.00;99141.38;5046885;28;20863;-88
2021/11/26 05:25:54;;;;;;;52.03;25.02;;;6.50;99.90;;;4.29;100.00;99137.84;5045420;28;20068;-89
2021/11/26 05:28:23;;;;;;;43.78;24.88;;;6.50;99.90;;;4.35;100.00;99126.38;5044300;28;20099;-88
2021/11/26 05:30:50;;;;;;;48.65;24.95;;;6.50;99.90;;;4.33;100.00;99127.56;5048053;28;20094;-88
2021/11/26 05:33:18;;;;;;;52.90;24.40;;;6.50;99.90;;;4.29;100.00;99119.84;5046806;28;20386;-87
2021/11/26 05:35:45;;;;;;;45.90;24.50;;;6.50;99.90;;;4.31;100.00;99123.19;5048350;28;20053;-88
2021/11/26 05:38:13;;;;;;;45.25;23.30;;;6.50;99.90;;;4.31;100.00;99122.34;5050465;28;20090;-88
2021/11/26 05:40:42;;;;;;;51.97;24.27;;;6.50;99.90;;;4.33;100.00;99114.09;5080762;28;20051;-90
2021/11/26 05:43:10;;;;;;;48.45;24.48;;;6.50;99.90;;;4.36;100.00;99111.91;5050578;28;20048;-90
2021/11/26 05:45:39;;;;;;;44.33;23.05;;;6.50;99.90;;;4.31;100.00;99106.19;5050252;28;20045;-90
2021/11/26 05:48:07;;;;;;;45.75;22.38;;;6.50;99.90;;;4.35;100.00;99106.69;5051401;28;20064;-90
2021/11/26 05:50:35;;;;;;;47.40;22.35;;;6.50;99.90;;;4.32;100.00;99107.88;5050800;28;20049;-88
2021/11/26 05:53:02;;;;;;;40.42;21.25;;;6.50;99.90;;;4.35;100.00;99101.28;5050306;28;20041;-87
2021/11/26 05:55:32;;;;;;;42.40;21.33;;;6.50;99.90;;;4.40;100.00;99101.56;5048653;28;20390;-89
2021/11/26 05:58:00;;;;;;;41.63;20.95;;;6.50;99.90;;;4.36;100.00;99101.13;5051650;28;20593;-88
2021/11/26 06:00:30;;;;;;;46.15;20.63;;;6.50;99.90;;;4.35;100.00;99101.28;5049225;28;20560;-89
2021/11/26 06:03:00;;;;;;;38.58;20.23;;;6.50;99.90;;;4.34;100.00;99095.09;5049501;28;20041;-89
2021/11/26 06:05:28;;;;;;;38.85;19.75;;;6.50;99.90;;;4.37;100.00;99091.19;5051547;28;20083;-89
2021/11/26 06:07:55;;;;;;;37.33;19.50;;;6.50;99.90;;;4.39;100.00;99089.16;5050255;28;20053;-91
2021/11/26 06:10:23;;;;;;;36.17;18.90;;;6.50;99.90;;;4.33;100.00;99088.00;5049296;28;20037;-88
2021/11/26 06:12:53;;;;;;;32.88;17.05;;;6.50;99.90;;;4.35;100.00;99085.13;5051578;28;20505;-89
2021/11/26 06:15:22;;;;;;;34.35;17.45;;;6.50;99.90;;;4.35;100.00;99071.69;5051211;28;20126;-90
2021/11/26 06:17:50;;;;;;;35.85;17.33;;;6.50;99.90;;;4.34;100.00;99078.91;5049567;28;20136;-87
2021/11/26 06:20:20;;;;;;;36.90;17.58;;;6.50;99.90;;;4.33;100.00;99071.03;5049705;28;20053;-87
2021/11/26 06:22:48;;;;;;;32.55;16.55;;;6.50;99.90;;;4.36;100.00;99067.94;5049357;28;20057;-87
2021/11/26 06:25:19;;;;;;;29.95;16.73;;;6.50;99.90;;;4.38;100.00;99064.06;5049518;28;20045;-88
2021/11/26 06:27:48;;;;;;;34.55;16.35;;;6.50;99.90;;;4.36;100.00;99076.03;5042134;28;20076;-89
2021/11/26 06:30:18;;;;;;;32.22;16.52;;;6.50;99.90;;;4.34;100.00;99067.28;5049334;28;20048;-87
2021/11/26 06:32:46;;;;;;;32.00;15.65;;;6.40;99.90;;;4.36;100.00;99060.72;5051166;28;20136;-86
2021/11/26 06:35:16;;;;;;;35.72;16.08;;;6.50;99.90;;;4.38;100.00;99057.81;5049437;28;20045;-87
2021/11/26 06:37:44;;;;;;;29.73;15.80;;;6.50;99.90;;;4.37;100.00;99050.78;5051156;28;20114;-88
2021/11/26 06:40:13;;;;;;;30.63;15.50;;;6.50;99.90;;;4.42;100.00;99051.09;5049606;28;20045;-87
2021/11/26 06:42:41;;;;;;;34.35;15.60;;;6.50;99.90;;;4.39;100.00;99044.19;5045541;28;20043;-87
2021/11/26 06:45:11;;;;;;;32.00;16.02;;;6.50;99.90;;;4.40;100.00;99039.63;5050630;28;20072;-87
2021/11/26 06:47:39;;;;;;;29.73;15.77;;;6.50;99.90;;;4.38;100.00;99042.53;5048994;28;20041;-87
2021/11/26 06:50:09;;;;;;;29.23;16.08;;;6.50;99.90;;;4.36;100.00;99038.31;5049634;28;20493;-88
2021/11/26 06:52:37;;;;;;;26.13;15.23;;;6.50;99.90;;;4.41;100.00;99035.94;5048436;28;20068;-89
2021/11/26 06:55:08;;;;;;;30.75;16.67;;;6.50;99.90;;;4.39;100.00;99032.59;5047914;28;20567;-87
2021/11/26 06:57:36;;;;;;;26.20;14.52;;;6.50;99.90;;;4.39;100.00;99021.81;5049024;28;20489;-87
2021/11/26 07:00:06;;;;;;;28.13;15.98;;;6.50;99.90;;;4.41;100.00;99011.69;5049236;28;20128;-87
2021/11/26 07:02:33;;;;;;;34.33;16.00;;;6.50;99.90;;;4.37;100.00;99019.28;5046941;28;20110;-87
2021/11/26 07:05:01;;;;;;;30.48;17.05;;;6.50;99.90;;;4.41;100.00;99017.06;5061615;28;20119;-85
2021/11/26 07:07:28;;;;;;;29.92;16.55;;;6.50;99.90;;;4.36;100.00;99012.25;5049022;28;20461;-85
2021/11/26 07:09:56;;;;;;;34.47;17.60;;;6.50;99.90;;;4.40;100.00;99012.69;5049119;28;20339;-85
2021/11/26 07:12:25;;;;;;;29.85;16.08;;;6.50;99.90;;;4.36;100.00;99006.88;5050557;28;20060;-85
2021/11/26 07:14:52;;;;;;;33.97;16.65;;;6.50;99.90;;;4.39;100.00;99006.47;5048733;28;20175;-85
2021/11/26 07:17:19;;;;;;;30.42;16.42;;;6.50;99.90;;;4.39;100.00;99001.09;5048944;28;20048;-86
2021/11/26 07:19:49;;;;;;;33.45;17.67;;;6.50;99.90;;;4.39;100.00;98998.41;5050146;28;20036;-86
2021/11/26 07:22:17;;;;;;;36.38;19.65;;;6.60;99.90;;;4.41;100.00;98995.53;5046345;28;20140;-85
2021/11/26 07:24:46;;;;;;;31.85;18.20;;;6.60;99.90;;;4.39;100.00;98990.31;5049901;28;20488;-86
2021/11/26 07:27:14;;;;;;;34.60;18.42;;;6.60;99.90;;;4.41;100.00;98988.28;5045661;28;20582;-86
2021/11/26 07:29:43;;;;;;;32.30;18.45;;;6.60;99.90;;;4.40;100.00;98973.16;5047549;28;20033;-86
2021/11/26 07:32:10;;;;;;;30.13;16.67;;;6.60;99.90;;;4.45;100.00;98967.19;5048507;28;20064;-86
2021/11/26 07:34:40;;;;;;;33.20;18.35;;;6.60;99.90;;;4.45;100.00;98967.19;5043445;28;20045;-86
2021/11/26 07:37:08;;;;;;;31.60;16.95;;;6.60;99.90;;;4.42;100.00;98968.41;5048744;28;20044;-86
2021/11/26 07:39:37;;;;;;;31.23;17.30;;;6.60;99.90;;;4.44;100.00;98970.94;5048903;28;20041;-85
2021/11/26 07:42:10;;;;;;;30.65;16.65;;;6.60;99.90;;;4.36;100.00;98968.28;5049711;28;20041;-86
2021/11/26 07:44:39;;;;;;;33.47;17.65;;;6.60;99.90;;;4.40;100.00;98967.75;5048052;28;20056;-86
2021/11/26 07:47:11;;;;;;;29.90;16.13;;;6.60;99.90;;;4.42;100.00;98968.41;5048378;28;20421;-85
2021/11/26 07:49:39;;;;;;;32.60;17.65;;;6.60;99.90;;;4.41;100.00;98966.72;5047589;28;20041;-85
2021/11/26 07:52:09;;;;;;;31.90;16.85;;;6.60;99.90;;;4.44;100.00;98958.28;5048327;28;20124;-86
2021/11/26 07:54:37;;;;;;;30.45;16.13;;;6.60;99.90;;;4.45;100.00;98956.44;5047624;28;20057;-85
2021/11/26 07:57:04;;;;;;;31.30;16.08;;;6.60;99.90;;;4.44;100.00;98955.59;5048254;28;20743;-85
2021/11/26 07:59:32;;;;;;;31.33;15.88;;;6.60;99.90;;;4.44;100.00;98952.91;5047842;28;20114;-86
2021/11/26 08:01:59;;;;;;;34.22;16.10;;;6.60;99.90;;;4.43;100.00;98943.13;5049478;28;20033;-85
2021/11/26 08:04:28;;;;;;;34.42;17.33;;;6.60;99.90;;;4.45;100.00;98946.47;5049001;28;20106;-85
2021/11/26 08:06:55;;;;;;;39.67;18.40;;;6.60;99.90;;;4.42;100.00;98940.66;5046831;28;20566;-86
2021/11/26 08:09:22;;;;;;;37.47;17.58;;;6.60;99.90;;;4.50;100.00;98932.47;5043300;28;20045;-85
2021/11/26 08:11:52;;;;;;;37.53;17.88;;;6.60;99.90;;;4.48;100.00;98929.13;5044196;28;20060;-85
2021/11/26 08:14:21;;;;;;;35.47;17.95;;;6.60;99.90;;;4.50;100.00;98922.53;5028941;28;20573;-86
2021/11/26 08:16:50;;;;;;;35.50;18.17;;;6.70;99.90;;;4.53;100.00;98918.63;5029115;28;20051;-85
2021/11/26 08:19:18;;;;;;;39.08;16.83;;;6.60;99.90;;;4.49;100.00;98920.00;5031127;28;20052;-86
2021/11/26 08:21:47;;;;;;;42.95;18.48;;;6.60;99.90;;;4.54;100.00;98909.53;5047510;28;20078;-85
2021/11/26 08:24:16;;;;;;;38.38;17.50;;;6.60;99.90;;;4.54;100.00;98906.00;5041889;28;20500;-87
2021/11/26 08:26:45;;;;;;;32.47;15.98;;;6.60;99.90;;;4.56;100.00;98899.41;5048946;28;20499;-86
2021/11/26 08:29:14;;;;;;;35.17;17.05;;;6.60;99.90;;;4.57;100.00;98901.09;5048592;28;20041;-88
2021/11/26 08:31:42;;;;;;;37.28;16.38;;;6.60;99.90;;;4.59;100.00;98898.19;5048515;28;20163;-88
2021/11/26 08:34:10;;;;;;;29.60;16.23;;;6.60;99.90;;;4.57;100.00;98897.53;5048787;28;20519;-88
2021/11/26 08:36:38;;;;;;;39.88;16.23;;;6.70;99.90;;;4.54;100.00;98885.28;5047565;28;20115;-87
2021/11/26 08:39:08;;;;;;;32.38;15.00;;;6.60;99.90;;;4.55;100.00;98892.38;5045880;28;20049;-87
2021/11/26 08:41:36;;;;;;;37.03;15.37;;;6.60;99.90;;;4.56;100.00;98872.47;5038377;28;20132;-87
2021/11/26 08:44:04;;;;;;;37.85;15.38;;;6.70;99.90;;;4.60;100.00;98868.38;5027327;28;20053;-88
2021/11/26 08:46:32;;;;;;;29.85;14.80;;;6.70;99.90;;;4.64;100.00;98864.28;5044372;28;20045;-87
2021/11/26 08:48:59;;;;;;;26.77;14.68;;;6.70;99.90;;;4.63;100.00;98868.00;5028856;28;20037;-87
2021/11/26 08:51:28;;;;;;;34.30;14.80;;;6.70;99.90;;;4.62;100.00;98866.31;5048163;28;20745;-90
2021/11/26 08:53:56;;;;;;;39.45;15.57;;;6.70;99.90;;;4.59;100.00;98861.31;5048444;28;20049;-88
2021/11/26 08:56:26;;;;;;;32.05;13.45;;;6.70;99.90;;;4.61;100.00;98853.88;5045780;28;20041;-86
2021/11/26 08:58:53;;;;;;;29.27;12.90;;;6.70;99.90;;;4.67;100.00;98858.53;5042574;28;20050;-85
2021/11/26 09:01:21;;;;;;;32.10;13.52;;;6.70;99.90;;;4.68;100.00;98852.13;5040230;28;20060;-86
2021/11/26 09:03:50;;;;;;;35.15;14.43;;;6.70;99.90;;;4.74;100.00;98845.16;5048450;28;20056;-86
2021/11/26 09:06:18;;;;;;;31.13;13.43;;;6.70;99.90;;;4.69;100.00;98840.31;5029510;28;20504;-86
2021/11/26 09:08:46;;;;;;;30.73;13.88;;;6.70;99.90;;;4.70;100.00;98827.66;5032748;28;20515;-86
2021/11/26 09:11:14;;;;;;;32.47;14.00;;;6.70;99.90;;;4.74;100.00;98830.81;5049211;28;20124;-86
2021/11/26 09:13:44;;;;;;;34.38;13.68;;;6.70;99.90;;;4.77;100.00;98830.44;5052716;28;20139;-86
2021/11/26 09:16:11;;;;;;;28.05;13.18;;;6.80;99.90;;;4.75;100.00;98827.94;5039674;28;20077;-86
2021/11/26 09:18:39;;;;;;;29.92;13.80;;;6.80;99.90;;;4.77;100.00;98823.19;5050670;28;20069;-87
2021/11/26 09:21:07;;;;;;;31.88;13.20;;;6.80;99.90;;;4.79;100.00;98825.69;5049268;28;20057;-87
2021/11/26 09:23:34;;;;;;;36.67;14.73;;;6.80;99.90;;;4.80;100.00;98827.38;5052416;28;20455;-86
2021/11/26 09:26:03;;;;;;;33.10;13.05;;;6.80;99.90;;;4.78;100.00;98821.31;5051900;28;20057;-86
2021/11/26 09:28:30;;;;;;;32.22;13.25;;;6.80;99.90;;;4.85;100.00;98824.94;5052246;28;20045;-87
2021/11/26 09:30:59;;;;;;;32.92;13.75;;;6.80;99.90;;;4.88;100.00;98819.19;5051448;28;20500;-87
2021/11/26 09:33:33;;;;;;;27.48;13.82;;;6.90;99.90;;;4.90;100.00;98820.66;5049071;28;20045;-91
2021/11/26 09:36:00;;;;;;;30.02;14.18;;;6.90;99.90;;;4.89;100.00;98815.44;5045646;28;20412;-89
2021/11/26 09:38:28;;;;;;;27.30;12.65;;;6.90;99.90;;;4.92;100.00;98807.00;5051463;28;20068;-87
2021/11/26 09:40:55;;;;;;;30.70;12.18;;;6.90;99.90;;;4.89;100.00;98813.59;5038550;28;20050;-87
2021/11/26 09:43:23;;;;;;;32.65;13.15;;;6.90;99.90;;;4.93;100.00;98799.72;5047173;28;20045;-88
2021/11/26 09:45:50;;;;;;;31.65;12.68;;;6.90;99.90;;;4.90;100.00;98798.25;5051368;28;20107;-88
2021/11/26 09:48:19;;;;;;;28.58;11.48;;;6.90;99.90;;;4.85;100.00;98789.91;5051640;28;20053;-88
2021/11/26 09:50:46;;;;;;;27.77;11.48;;;6.90;99.90;;;4.92;100.00;98790.81;5050441;28;20044;-87
2021/11/26 09:53:18;;;;;;;25.90;11.45;;;6.90;99.90;;;5.00;100.00;98788.00;5051294;28;20110;-88
2021/11/26 09:55:51;;;;;;;31.20;11.23;;;6.90;99.90;;;4.99;100.00;98791.72;5049705;28;20051;-88
2021/11/26 09:58:19;;;;;;;27.05;11.55;;;6.90;99.90;;;4.97;100.00;98772.22;5051565;28;20056;-88
2021/11/26 10:00:48;;;;;;;33.60;11.57;;;6.90;99.90;;;4.97;100.00;98772.22;5050051;28;20051;-88
2021/11/26 10:03:18;;;;;;;34.95;10.93;;;7.00;99.90;;;4.95;100.00;98768.88;5051996;28;20052;-88
2021/11/26 10:05:47;;;;;;;32.40;11.20;;;7.00;99.90;;;4.96;100.00;98759.75;5046731;28;20041;-87
2021/11/26 10:08:23;;;;;;;29.13;10.40;;;7.00;99.90;;;4.95;100.00;98752.72;5047036;28;20044;-88
2021/11/26 10:10:58;;;;;;;28.95;11.13;;;7.00;99.90;;;4.95;100.00;98741.94;5048525;28;20049;-88
2021/11/26 10:13:25;;;;;;;27.02;10.80;;;7.00;99.90;;;4.94;100.00;98748.31;5061664;28;20056;-88
2021/11/26 10:15:53;;;;;;;30.45;10.05;;;7.00;99.90;;;5.00;100.00;98742.16;5049910;28;20131;-88
2021/11/26 10:18:25;;;;;;;32.00;10.15;;;7.00;99.90;;;5.06;100.00;98746.81;5049231;28;20052;-87